sensor_id;sensor_type;location;lat;lon;timestamp;pressure;altitude;pressure_sealevel;temperature;humidity
82311;BME280;72015;51.330;12.316;2024-01-07T00:03:03;100234.84;;;-0.68;56.70
82311;BME280;72015;51.330;12.316;2024-01-07T00:07:27;100237.39;;;-0.76;56.73
82311;BME280;72015;51.330;12.316;2024-01-07T00:11:51;100238.87;;;-0.77;56.26
82311;BME280;72015;51.330;12.316;2024-01-07T00:16:15;100240.16;;;-0.73;55.06
82311;BME280;72015;51.330;12.316;2024-01-07T00:20:39;100243.63;;;-0.63;54.28
82311;BME280;72015;51.330;12.316;2024-01-07T00:25:03;100247.99;;;-0.62;55.06
82311;BME280;72015;51.330;12.316;2024-01-07T00:29:27;100252.06;;;-0.63;55.05
82311;BME280;72015;51.330;12.316;2024-01-07T00:33:51;100254.80;;;-0.61;55.03
82311;BME280;72015;51.330;12.316;2024-01-07T00:38:15;100258.72;;;-0.58;55.02
82311;BME280;72015;51.330;12.316;2024-01-07T00:42:39;100262.36;;;-0.56;55.40
82311;BME280;72015;51.330;12.316;2024-01-07T00:47:03;100266.13;;;-0.52;55.04
82311;BME280;72015;51.330;12.316;2024-01-07T00:51:27;100268.13;;;-0.58;55.90
82311;BME280;72015;51.330;12.316;2024-01-07T00:55:51;100271.83;;;-0.69;55.34
82311;BME280;72015;51.330;12.316;2024-01-07T01:00:15;100277.46;;;-0.84;55.71
82311;BME280;72015;51.330;12.316;2024-01-07T01:04:39;100282.56;;;-0.94;55.37
82311;BME280;72015;51.330;12.316;2024-01-07T01:09:03;100288.30;;;-1.01;55.12
82311;BME280;72015;51.330;12.316;2024-01-07T01:13:27;100294.19;;;-1.12;55.26
82311;BME280;72015;51.330;12.316;2024-01-07T01:17:51;100299.53;;;-1.25;54.59
82311;BME280;72015;51.330;12.316;2024-01-07T01:22:15;100305.59;;;-1.24;53.98
82311;BME280;72015;51.330;12.316;2024-01-07T01:26:39;100310.52;;;-1.17;53.09
82311;BME280;72015;51.330;12.316;2024-01-07T01:31:03;100315.59;;;-1.10;53.43
82311;BME280;72015;51.330;12.316;2024-01-07T01:35:27;100320.39;;;-1.04;53.12
82311;BME280;72015;51.330;12.316;2024-01-07T01:39:51;100324.94;;;-1.02;53.54
82311;BME280;72015;51.330;12.316;2024-01-07T01:44:15;100331.36;;;-1.00;53.50
82311;BME280;72015;51.330;12.316;2024-01-07T01:48:39;100337.33;;;-0.97;52.88
82311;BME280;72015;51.330;12.316;2024-01-07T01:53:03;100342.39;;;-1.04;53.67
82311;BME280;72015;51.330;12.316;2024-01-07T01:57:28;100347.34;;;-1.06;52.94
82311;BME280;72015;51.330;12.316;2024-01-07T02:01:51;100351.90;;;-1.03;52.60
82311;BME280;72015;51.330;12.316;2024-01-07T02:06:15;100354.77;;;-1.03;52.63
82311;BME280;72015;51.330;12.316;2024-01-07T02:10:39;100358.95;;;-1.03;52.37
82311;BME280;72015;51.330;12.316;2024-01-07T02:15:03;100362.02;;;-1.08;52.76
82311;BME280;72015;51.330;12.316;2024-01-07T02:19:27;100365.30;;;-1.08;52.42
82311;BME280;72015;51.330;12.316;2024-01-07T02:23:51;100368.05;;;-1.06;52.42
82311;BME280;72015;51.330;12.316;2024-01-07T02:28:15;100371.33;;;-1.05;52.25
82311;BME280;72015;51.330;12.316;2024-01-07T02:32:39;100374.41;;;-1.03;52.01
82311;BME280;72015;51.330;12.316;2024-01-07T02:37:03;100377.67;;;-1.00;51.77
82311;BME280;72015;51.330;12.316;2024-01-07T02:41:27;100380.27;;;-1.01;51.94
82311;BME280;72015;51.330;12.316;2024-01-07T02:45:51;100382.30;;;-1.05;52.11
82311;BME280;72015;51.330;12.316;2024-01-07T02:50:15;100384.33;;;-1.13;52.32
82311;BME280;72015;51.330;12.316;2024-01-07T02:54:39;100387.01;;;-1.17;52.81
82311;BME280;72015;51.330;12.316;2024-01-07T02:59:03;100390.04;;;-1.23;53.23
82311;BME280;72015;51.330;12.316;2024-01-07T03:03:27;100393.31;;;-1.26;52.58
82311;BME280;72015;51.330;12.316;2024-01-07T03:07:51;100397.28;;;-1.31;52.75
82311;BME280;72015;51.330;12.316;2024-01-07T03:12:15;100400.90;;;-1.42;53.09
82311;BME280;72015;51.330;12.316;2024-01-07T03:16:39;100404.19;;;-1.54;52.97
82311;BME280;72015;51.330;12.316;2024-01-07T03:21:03;100407.58;;;-1.59;53.13
82311;BME280;72015;51.330;12.316;2024-01-07T03:25:27;100409.57;;;-1.67;53.18
82311;BME280;72015;51.330;12.316;2024-01-07T03:29:51;100410.64;;;-1.75;53.03
82311;BME280;72015;51.330;12.316;2024-01-07T03:34:15;100411.99;;;-1.80;52.47
82311;BME280;72015;51.330;12.316;2024-01-07T03:38:40;100413.35;;;-1.88;52.78
82311;BME280;72015;51.330;12.316;2024-01-07T03:43:03;100414.92;;;-1.91;52.23
82311;BME280;72015;51.330;12.316;2024-01-07T03:47:27;100417.27;;;-1.89;51.67
82311;BME280;72015;51.330;12.316;2024-01-07T03:51:51;100419.51;;;-1.87;51.47
82311;BME280;72015;51.330;12.316;2024-01-07T03:56:15;100422.46;;;-1.90;51.57
82311;BME280;72015;51.330;12.316;2024-01-07T04:00:39;100425.37;;;-1.88;50.88
82311;BME280;72015;51.330;12.316;2024-01-07T04:05:03;100430.10;;;-1.91;51.31
82311;BME280;72015;51.330;12.316;2024-01-07T04:09:27;100434.77;;;-1.91;50.86
82311;BME280;72015;51.330;12.316;2024-01-07T04:13:51;100438.42;;;-1.94;51.00
82311;BME280;72015;51.330;12.316;2024-01-07T04:18:15;100442.97;;;-1.98;51.13
82311;BME280;72015;51.330;12.316;2024-01-07T04:22:39;100447.55;;;-1.98;50.39
82311;BME280;72015;51.330;12.316;2024-01-07T04:27:03;100452.20;;;-1.97;50.33
82311;BME280;72015;51.330;12.316;2024-01-07T04:31:27;100457.14;;;-1.92;49.86
82311;BME280;72015;51.330;12.316;2024-01-07T04:35:51;100460.82;;;-1.99;51.57
82311;BME280;72015;51.330;12.316;2024-01-07T04:40:15;100465.30;;;-2.02;50.71
82311;BME280;72015;51.330;12.316;2024-01-07T04:44:39;100469.06;;;-1.96;49.96
82311;BME280;72015;51.330;12.316;2024-01-07T04:49:03;100471.69;;;-1.89;49.78
82311;BME280;72015;51.330;12.316;2024-01-07T04:53:27;100474.88;;;-1.86;49.82
82311;BME280;72015;51.330;12.316;2024-01-07T04:57:51;100478.16;;;-1.83;49.61
82311;BME280;72015;51.330;12.316;2024-01-07T05:02:15;100482.34;;;-1.77;49.28
82311;BME280;72015;51.330;12.316;2024-01-07T05:06:39;100486.05;;;-1.71;49.19
82311;BME280;72015;51.330;12.316;2024-01-07T05:11:03;100491.03;;;-1.68;48.96
82311;BME280;72015;51.330;12.316;2024-01-07T05:15:27;100496.15;;;-1.75;49.52
82311;BME280;72015;51.330;12.316;2024-01-07T05:19:51;100502.40;;;-1.86;50.09
82311;BME280;72015;51.330;12.316;2024-01-07T05:24:15;100508.45;;;-2.04;50.04
82311;BME280;72015;51.330;12.316;2024-01-07T05:28:39;100513.69;;;-2.18;49.83
82311;BME280;72015;51.330;12.316;2024-01-07T05:33:03;100518.25;;;-2.20;49.35
82311;BME280;72015;51.330;12.316;2024-01-07T05:37:27;100524.65;;;-2.25;49.35
82311;BME280;72015;51.330;12.316;2024-01-07T05:41:51;100529.19;;;-2.31;50.01
82311;BME280;72015;51.330;12.316;2024-01-07T05:46:15;100533.51;;;-2.31;49.69
82311;BME280;72015;51.330;12.316;2024-01-07T05:50:39;100535.55;;;-2.29;48.56
82311;BME280;72015;51.330;12.316;2024-01-07T05:55:04;100539.00;;;-2.28;48.45
82311;BME280;72015;51.330;12.316;2024-01-07T05:59:27;100542.60;;;-2.31;48.43
82311;BME280;72015;51.330;12.316;2024-01-07T06:03:51;100545.81;;;-2.30;48.09
82311;BME280;72015;51.330;12.316;2024-01-07T06:08:15;100551.11;;;-2.30;48.28
82311;BME280;72015;51.330;12.316;2024-01-07T06:12:39;100556.14;;;-2.31;48.34
82311;BME280;72015;51.330;12.316;2024-01-07T06:17:03;100561.28;;;-2.31;48.46
82311;BME280;72015;51.330;12.316;2024-01-07T06:21:27;100565.42;;;-2.39;49.05
82311;BME280;72015;51.330;12.316;2024-01-07T06:25:51;100570.72;;;-2.42;48.87
82311;BME280;72015;51.330;12.316;2024-01-07T06:30:15;100574.49;;;-2.44;48.94
82311;BME280;72015;51.330;12.316;2024-01-07T06:34:39;100579.04;;;-2.52;49.67
82311;BME280;72015;51.330;12.316;2024-01-07T06:39:03;100583.37;;;-2.63;50.32
82311;BME280;72015;51.330;12.316;2024-01-07T06:43:27;100589.72;;;-2.69;50.29
82311;BME280;72015;51.330;12.316;2024-01-07T06:47:51;100595.15;;;-2.75;50.36
82311;BME280;72015;51.330;12.316;2024-01-07T06:52:15;100599.28;;;-2.71;49.80
82311;BME280;72015;51.330;12.316;2024-01-07T06:56:39;100604.28;;;-2.68;49.86
82311;BME280;72015;51.330;12.316;2024-01-07T07:01:06;100610.14;;;-2.71;50.27
82311;BME280;72015;51.330;12.316;2024-01-07T07:05:27;100616.94;;;-2.70;50.29
82311;BME280;72015;51.330;12.316;2024-01-07T07:09:51;100623.53;;;-2.68;50.28
82311;BME280;72015;51.330;12.316;2024-01-07T07:14:15;100630.97;;;-2.70;50.00
82311;BME280;72015;51.330;12.316;2024-01-07T07:18:39;100636.92;;;-2.75;49.94
82311;BME280;72015;51.330;12.316;2024-01-07T07:23:03;100642.97;;;-2.79;50.18
82311;BME280;72015;51.330;12.316;2024-01-07T07:27:27;100649.65;;;-2.91;50.47
82311;BME280;72015;51.330;12.316;2024-01-07T07:31:51;100654.30;;;-3.00;49.51
82311;BME280;72015;51.330;12.316;2024-01-07T07:36:15;100658.91;;;-3.12;49.93
82311;BME280;72015;51.330;12.316;2024-01-07T07:40:39;100663.34;;;-3.22;50.11
82311;BME280;72015;51.330;12.316;2024-01-07T07:45:04;100667.72;;;-3.18;49.27
82311;BME280;72015;51.330;12.316;2024-01-07T07:49:27;100673.02;;;-3.14;49.24
82311;BME280;72015;51.330;12.316;2024-01-07T07:53:51;100680.66;;;-3.17;49.39
82311;BME280;72015;51.330;12.316;2024-01-07T07:58:15;100688.62;;;-3.24;49.83
82311;BME280;72015;51.330;12.316;2024-01-07T08:02:39;100697.39;;;-3.34;50.77
82311;BME280;72015;51.330;12.316;2024-01-07T08:07:03;100704.00;;;-3.46;49.80
82311;BME280;72015;51.330;12.316;2024-01-07T08:11:27;100710.72;;;-3.45;49.19
82311;BME280;72015;51.330;12.316;2024-01-07T08:15:51;100715.86;;;-3.47;48.59
82311;BME280;72015;51.330;12.316;2024-01-07T08:20:15;100720.78;;;-3.47;48.43
82311;BME280;72015;51.330;12.316;2024-01-07T08:24:39;100725.36;;;-3.50;48.01
82311;BME280;72015;51.330;12.316;2024-01-07T08:29:03;100729.85;;;-3.52;47.95
82311;BME280;72015;51.330;12.316;2024-01-07T08:33:27;100733.95;;;-3.53;47.59
82311;BME280;72015;51.330;12.316;2024-01-07T08:37:51;100739.53;;;-3.52;47.80
82311;BME280;72015;51.330;12.316;2024-01-07T08:42:15;100743.89;;;-3.67;49.02
82311;BME280;72015;51.330;12.316;2024-01-07T08:46:39;100749.89;;;-3.63;47.04
82311;BME280;72015;51.330;12.316;2024-01-07T08:51:03;100755.05;;;-3.56;46.78
82311;BME280;72015;51.330;12.316;2024-01-07T08:55:27;100759.86;;;-3.44;46.27
82311;BME280;72015;51.330;12.316;2024-01-07T08:59:51;100762.87;;;-3.42;46.83
82311;BME280;72015;51.330;12.316;2024-01-07T09:04:15;100767.03;;;-3.39;46.71
82311;BME280;72015;51.330;12.316;2024-01-07T09:08:39;100771.20;;;-3.35;46.59
82311;BME280;72015;51.330;12.316;2024-01-07T09:13:03;100776.40;;;-3.37;46.90
82311;BME280;72015;51.330;12.316;2024-01-07T09:17:27;100783.00;;;-3.42;46.61
82311;BME280;72015;51.330;12.316;2024-01-07T09:21:51;100788.59;;;-3.45;46.65
82311;BME280;72015;51.330;12.316;2024-01-07T09:26:15;100793.77;;;-3.52;46.23
82311;BME280;72015;51.330;12.316;2024-01-07T09:30:39;100798.92;;;-3.53;45.82
82311;BME280;72015;51.330;12.316;2024-01-07T09:35:04;100804.33;;;-3.49;45.64
82311;BME280;72015;51.330;12.316;2024-01-07T09:39:27;100808.81;;;-3.51;45.61
82311;BME280;72015;51.330;12.316;2024-01-07T09:43:51;100812.48;;;-3.54;45.81
82311;BME280;72015;51.330;12.316;2024-01-07T09:48:15;100815.89;;;-3.61;45.75
82311;BME280;72015;51.330;12.316;2024-01-07T09:52:41;100819.65;;;-3.66;45.96
82311;BME280;72015;51.330;12.316;2024-01-07T09:57:04;100820.61;;;-3.65;45.90
82311;BME280;72015;51.330;12.316;2024-01-07T10:01:28;100822.09;;;-3.66;46.18
82311;BME280;72015;51.330;12.316;2024-01-07T10:05:52;100824.50;;;-3.60;45.57
82311;BME280;72015;51.330;12.316;2024-01-07T10:10:16;100826.90;;;-3.51;44.67
82311;BME280;72015;51.330;12.316;2024-01-07T10:14:39;100827.87;;;-3.41;44.68
82311;BME280;72015;51.330;12.316;2024-01-07T10:19:03;100830.86;;;-3.37;44.75
82311;BME280;72015;51.330;12.316;2024-01-07T10:23:27;100833.09;;;-3.37;44.55
82311;BME280;72015;51.330;12.316;2024-01-07T10:27:51;100835.58;;;-3.30;43.70
82311;BME280;72015;51.330;12.316;2024-01-07T10:32:17;100835.82;;;-3.30;44.06
82311;BME280;72015;51.330;12.316;2024-01-07T10:36:39;100837.05;;;-3.23;43.22
82311;BME280;72015;51.330;12.316;2024-01-07T10:41:03;100838.20;;;-3.15;43.04
82311;BME280;72015;51.330;12.316;2024-01-07T10:45:27;100839.39;;;-3.07;42.62
82311;BME280;72015;51.330;12.316;2024-01-07T10:49:51;100841.16;;;-2.99;42.47
82311;BME280;72015;51.330;12.316;2024-01-07T10:54:15;100842.11;;;-2.85;41.94
82311;BME280;72015;51.330;12.316;2024-01-07T10:58:39;100844.53;;;-2.75;41.65
82311;BME280;72015;51.330;12.316;2024-01-07T11:03:10;100846.54;;;-2.76;41.55
82311;BME280;72015;51.330;12.316;2024-01-07T11:07:29;100848.86;;;-2.77;41.05
82311;BME280;72015;51.330;12.316;2024-01-07T11:11:51;100850.06;;;-2.86;42.00
82311;BME280;72015;51.330;12.316;2024-01-07T11:16:40;100850.58;;;-2.94;42.41
82311;BME280;72015;51.330;12.316;2024-01-07T11:20:39;100851.88;;;-3.00;43.45
82311;BME280;72015;51.330;12.316;2024-01-07T11:25:20;100854.08;;;-3.00;42.78
82311;BME280;72015;51.330;12.316;2024-01-07T11:29:27;100855.56;;;-2.94;42.63
82311;BME280;72015;51.330;12.316;2024-01-07T11:33:51;100857.31;;;-2.90;42.88
82311;BME280;72015;51.330;12.316;2024-01-07T11:38:16;100858.20;;;-2.97;43.50
82311;BME280;72015;51.330;12.316;2024-01-07T11:42:40;100859.09;;;-3.05;43.93
82311;BME280;72015;51.330;12.316;2024-01-07T11:47:04;100859.16;;;-3.17;44.08
82311;BME280;72015;51.330;12.316;2024-01-07T11:51:28;100860.46;;;-3.20;43.80
82311;BME280;72015;51.330;12.316;2024-01-07T11:55:52;100860.60;;;-3.24;43.67
82311;BME280;72015;51.330;12.316;2024-01-07T12:00:16;100861.61;;;-3.33;44.12
82311;BME280;72015;51.330;12.316;2024-01-07T12:04:39;100861.06;;;-3.31;43.52
82311;BME280;72015;51.330;12.316;2024-01-07T12:09:03;100860.19;;;-3.32;44.28
82311;BME280;72015;51.330;12.316;2024-01-07T12:13:27;100858.89;;;-3.38;44.66
82311;BME280;72015;51.330;12.316;2024-01-07T12:17:55;100859.34;;;-3.39;44.56
82311;BME280;72015;51.330;12.316;2024-01-07T12:22:16;100861.11;;;-3.34;43.76
82311;BME280;72015;51.330;12.316;2024-01-07T12:26:40;100862.55;;;-3.26;43.18
82311;BME280;72015;51.330;12.316;2024-01-07T12:31:04;100865.66;;;-3.07;42.64
82311;BME280;72015;51.330;12.316;2024-01-07T12:35:28;100866.85;;;-2.87;42.17
82311;BME280;72015;51.330;12.316;2024-01-07T12:39:52;100867.74;;;-2.70;42.49
82311;BME280;72015;51.330;12.316;2024-01-07T12:44:15;100870.45;;;-2.57;42.14
82311;BME280;72015;51.330;12.316;2024-01-07T12:48:39;100873.55;;;-2.40;42.71
82311;BME280;72015;51.330;12.316;2024-01-07T12:53:04;100878.31;;;-2.22;42.95
82311;BME280;72015;51.330;12.316;2024-01-07T12:57:27;100882.36;;;-1.99;42.25
82311;BME280;72015;51.330;12.316;2024-01-07T13:01:51;100885.74;;;-1.76;41.47
82311;BME280;72015;51.330;12.316;2024-01-07T13:06:15;100888.62;;;-1.59;43.08
82311;BME280;72015;51.330;12.316;2024-01-07T13:10:39;100891.13;;;-1.46;42.20
82311;BME280;72015;51.330;12.316;2024-01-07T13:15:04;100895.68;;;-1.39;43.33
82311;BME280;72015;51.330;12.316;2024-01-07T13:19:27;100900.02;;;-1.33;42.42
82311;BME280;72015;51.330;12.316;2024-01-07T13:23:51;100905.08;;;-1.24;40.22
82311;BME280;72015;51.330;12.316;2024-01-07T13:28:15;100908.80;;;-1.17;40.28
82311;BME280;72015;51.330;12.316;2024-01-07T13:32:40;100912.67;;;-1.16;40.22
82311;BME280;72015;51.330;12.316;2024-01-07T13:37:03;100917.83;;;-1.12;39.79
82311;BME280;72015;51.330;12.316;2024-01-07T13:41:27;100923.05;;;-1.04;39.89
82311;BME280;72015;51.330;12.316;2024-01-07T13:45:51;100926.53;;;-0.96;39.68
82311;BME280;72015;51.330;12.316;2024-01-07T13:50:15;100930.42;;;-0.84;39.29
82311;BME280;72015;51.330;12.316;2024-01-07T13:54:39;100934.20;;;-0.81;40.19
82311;BME280;72015;51.330;12.316;2024-01-07T13:59:03;100937.89;;;-0.86;40.99
82311;BME280;72015;51.330;12.316;2024-01-07T14:03:27;100943.84;;;-0.90;41.11
82311;BME280;72015;51.330;12.316;2024-01-07T14:07:51;100948.58;;;-0.97;41.52
82311;BME280;72015;51.330;12.316;2024-01-07T14:12:15;100953.19;;;-1.11;42.05
82311;BME280;72015;51.330;12.316;2024-01-07T14:16:39;100957.79;;;-1.23;42.37
82311;BME280;72015;51.330;12.316;2024-01-07T14:21:03;100962.19;;;-1.28;42.16
82311;BME280;72015;51.330;12.316;2024-01-07T14:25:27;100964.04;;;-1.33;42.45
82311;BME280;72015;51.330;12.316;2024-01-07T14:29:51;100966.00;;;-1.38;42.06
82311;BME280;72015;51.330;12.316;2024-01-07T14:34:15;100969.00;;;-1.41;42.35
82311;BME280;72015;51.330;12.316;2024-01-07T14:38:39;100970.37;;;-1.46;42.69
82311;BME280;72015;51.330;12.316;2024-01-07T14:43:03;100972.64;;;-1.46;42.36
82311;BME280;72015;51.330;12.316;2024-01-07T14:47:27;100974.24;;;-1.54;42.93
82311;BME280;72015;51.330;12.316;2024-01-07T14:51:51;100975.42;;;-1.56;42.88
82311;BME280;72015;51.330;12.316;2024-01-07T14:56:15;100976.87;;;-1.61;43.20
82311;BME280;72015;51.330;12.316;2024-01-07T15:00:39;100980.91;;;-1.64;43.22
82311;BME280;72015;51.330;12.316;2024-01-07T15:05:04;100984.36;;;-1.73;43.90
82311;BME280;72015;51.330;12.316;2024-01-07T15:09:27;100986.36;;;-1.82;44.23
82311;BME280;72015;51.330;12.316;2024-01-07T15:13:51;100989.06;;;-1.94;44.81
82311;BME280;72015;51.330;12.316;2024-01-07T15:18:15;100992.17;;;-2.01;44.95
82311;BME280;72015;51.330;12.316;2024-01-07T15:22:39;100993.92;;;-2.15;46.43
82311;BME280;72015;51.330;12.316;2024-01-07T15:27:03;100996.95;;;-2.15;45.81
82311;BME280;72015;51.330;12.316;2024-01-07T15:31:27;101000.54;;;-2.11;45.88
82311;BME280;72015;51.330;12.316;2024-01-07T15:35:51;101004.40;;;-2.06;46.39
82311;BME280;72015;51.330;12.316;2024-01-07T15:40:15;101007.57;;;-2.08;47.14
82311;BME280;72015;51.330;12.316;2024-01-07T15:44:39;101011.08;;;-2.09;47.14
82311;BME280;72015;51.330;12.316;2024-01-07T15:49:03;101014.36;;;-2.08;47.55
82311;BME280;72015;51.330;12.316;2024-01-07T15:53:27;101019.04;;;-2.03;47.52
82311;BME280;72015;51.330;12.316;2024-01-07T15:57:51;101023.63;;;-2.03;48.47
82311;BME280;72015;51.330;12.316;2024-01-07T16:02:15;101026.76;;;-2.06;48.65
82311;BME280;72015;51.330;12.316;2024-01-07T16:06:40;101030.74;;;-2.09;49.56
82311;BME280;72015;51.330;12.316;2024-01-07T16:11:03;101034.29;;;-2.04;48.92
82311;BME280;72015;51.330;12.316;2024-01-07T16:15:27;101037.77;;;-1.97;49.55
82311;BME280;72015;51.330;12.316;2024-01-07T16:19:51;101040.17;;;-2.06;51.47
82311;BME280;72015;51.330;12.316;2024-01-07T16:24:15;101043.34;;;-2.21;52.65
82311;BME280;72015;51.330;12.316;2024-01-07T16:28:39;101045.34;;;-2.35;53.08
82311;BME280;72015;51.330;12.316;2024-01-07T16:33:03;101048.25;;;-2.51;54.25
82311;BME280;72015;51.330;12.316;2024-01-07T16:37:27;101050.60;;;-2.63;54.24
82311;BME280;72015;51.330;12.316;2024-01-07T16:41:51;101052.39;;;-2.71;54.37
82311;BME280;72015;51.330;12.316;2024-01-07T16:46:15;101054.27;;;-2.79;54.87
82311;BME280;72015;51.330;12.316;2024-01-07T16:50:39;101056.02;;;-2.94;55.97
82311;BME280;72015;51.330;12.316;2024-01-07T16:55:03;101057.81;;;-3.00;55.72
82311;BME280;72015;51.330;12.316;2024-01-07T16:59:27;101060.78;;;-3.04;55.72
82311;BME280;72015;51.330;12.316;2024-01-07T17:03:51;101062.67;;;-3.06;55.70
82311;BME280;72015;51.330;12.316;2024-01-07T17:08:15;101064.64;;;-3.00;54.53
82311;BME280;72015;51.330;12.316;2024-01-07T17:12:39;101066.41;;;-2.89;54.00
82311;BME280;72015;51.330;12.316;2024-01-07T17:17:03;101068.98;;;-2.81;54.21
82311;BME280;72015;51.330;12.316;2024-01-07T17:21:27;101071.59;;;-2.77;54.63
82311;BME280;72015;51.330;12.316;2024-01-07T17:25:51;101073.95;;;-2.77;55.11
82311;BME280;72015;51.330;12.316;2024-01-07T17:30:15;101075.36;;;-2.78;55.31
82311;BME280;72015;51.330;12.316;2024-01-07T17:34:39;101076.61;;;-2.83;55.73
82311;BME280;72015;51.330;12.316;2024-01-07T17:39:03;101078.44;;;-2.85;55.69
82311;BME280;72015;51.330;12.316;2024-01-07T17:43:27;101080.63;;;-2.77;55.04
82311;BME280;72015;51.330;12.316;2024-01-07T17:47:51;101083.23;;;-2.58;53.40
82311;BME280;72015;51.330;12.316;2024-01-07T17:52:15;101084.25;;;-2.28;51.86
82311;BME280;72015;51.330;12.316;2024-01-07T17:56:39;101084.45;;;-2.06;52.07
82311;BME280;72015;51.330;12.316;2024-01-07T18:01:03;101085.71;;;-1.92;51.62
82311;BME280;72015;51.330;12.316;2024-01-07T18:05:27;101086.80;;;-1.87;52.87
82311;BME280;72015;51.330;12.316;2024-01-07T18:09:51;101087.38;;;-1.87;53.16
82311;BME280;72015;51.330;12.316;2024-01-07T18:14:15;101089.53;;;-1.84;52.34
82311;BME280;72015;51.330;12.316;2024-01-07T18:18:39;101092.01;;;-1.81;52.52
82311;BME280;72015;51.330;12.316;2024-01-07T18:23:03;101093.87;;;-1.76;52.54
82311;BME280;72015;51.330;12.316;2024-01-07T18:27:27;101095.43;;;-1.73;52.53
82311;BME280;72015;51.330;12.316;2024-01-07T18:31:51;101098.00;;;-1.73;52.40
82311;BME280;72015;51.330;12.316;2024-01-07T18:36:16;101101.11;;;-1.75;53.04
82311;BME280;72015;51.330;12.316;2024-01-07T18:40:39;101102.96;;;-1.73;52.47
82311;BME280;72015;51.330;12.316;2024-01-07T18:45:04;101104.58;;;-1.72;52.70
82311;BME280;72015;51.330;12.316;2024-01-07T18:49:27;101105.98;;;-1.67;52.12
82311;BME280;72015;51.330;12.316;2024-01-07T18:53:51;101108.45;;;-1.64;52.54
82311;BME280;72015;51.330;12.316;2024-01-07T18:58:15;101110.42;;;-1.64;52.34
82311;BME280;72015;51.330;12.316;2024-01-07T19:02:39;101113.42;;;-1.61;51.88
82311;BME280;72015;51.330;12.316;2024-01-07T19:07:03;101116.93;;;-1.52;51.18
82311;BME280;72015;51.330;12.316;2024-01-07T19:11:27;101119.78;;;-1.53;51.72
82311;BME280;72015;51.330;12.316;2024-01-07T19:15:51;101122.71;;;-1.53;51.56
82311;BME280;72015;51.330;12.316;2024-01-07T19:20:15;101125.21;;;-1.54;51.91
82311;BME280;72015;51.330;12.316;2024-01-07T19:24:39;101127.93;;;-1.58;52.10
82311;BME280;72015;51.330;12.316;2024-01-07T19:29:03;101129.94;;;-1.67;52.74
82311;BME280;72015;51.330;12.316;2024-01-07T19:33:27;101134.01;;;-1.72;52.51
82311;BME280;72015;51.330;12.316;2024-01-07T19:37:51;101138.81;;;-1.79;53.08
82311;BME280;72015;51.330;12.316;2024-01-07T19:42:15;101142.16;;;-1.81;52.48
82311;BME280;72015;51.330;12.316;2024-01-07T19:46:39;101146.33;;;-1.79;52.46
82311;BME280;72015;51.330;12.316;2024-01-07T19:51:03;101148.72;;;-1.74;51.84
82311;BME280;72015;51.330;12.316;2024-01-07T19:55:27;101151.22;;;-1.67;51.48
82311;BME280;72015;51.330;12.316;2024-01-07T19:59:51;101153.46;;;-1.57;51.00
82311;BME280;72015;51.330;12.316;2024-01-07T20:04:15;101155.63;;;-1.50;51.21
82311;BME280;72015;51.330;12.316;2024-01-07T20:08:42;101156.80;;;-1.47;51.12
82311;BME280;72015;51.330;12.316;2024-01-07T20:13:03;101157.48;;;-1.46;51.18
82311;BME280;72015;51.330;12.316;2024-01-07T20:17:27;101159.01;;;-1.49;51.68
82311;BME280;72015;51.330;12.316;2024-01-07T20:21:51;101161.38;;;-1.47;51.17
82311;BME280;72015;51.330;12.316;2024-01-07T20:26:16;101162.89;;;-1.44;51.19
82311;BME280;72015;51.330;12.316;2024-01-07T20:30:39;101163.90;;;-1.45;51.34
82311;BME280;72015;51.330;12.316;2024-01-07T20:35:04;101164.20;;;-1.46;51.30
82311;BME280;72015;51.330;12.316;2024-01-07T20:39:27;101164.69;;;-1.52;51.27
82311;BME280;72015;51.330;12.316;2024-01-07T20:43:51;101165.01;;;-1.50;50.39
82311;BME280;72015;51.330;12.316;2024-01-07T20:48:15;101166.05;;;-1.44;50.21
82311;BME280;72015;51.330;12.316;2024-01-07T20:52:39;101168.70;;;-1.42;50.02
82311;BME280;72015;51.330;12.316;2024-01-07T20:57:03;101171.60;;;-1.43;50.75
82311;BME280;72015;51.330;12.316;2024-01-07T21:01:28;101175.67;;;-1.43;51.26
82311;BME280;72015;51.330;12.316;2024-01-07T21:05:51;101178.70;;;-1.45;51.41
82311;BME280;72015;51.330;12.316;2024-01-07T21:10:16;101181.02;;;-1.46;50.79
82311;BME280;72015;51.330;12.316;2024-01-07T21:14:39;101182.75;;;-1.46;51.21
82311;BME280;72015;51.330;12.316;2024-01-07T21:19:03;101183.47;;;-1.45;50.67
82311;BME280;72015;51.330;12.316;2024-01-07T21:23:27;101184.06;;;-1.44;48.74
82311;BME280;72015;51.330;12.316;2024-01-07T21:27:51;101184.64;;;-1.40;47.58
82311;BME280;72015;51.330;12.316;2024-01-07T21:32:15;101184.91;;;-1.35;47.74
82311;BME280;72015;51.330;12.316;2024-01-07T21:36:40;101185.99;;;-1.31;47.04
82311;BME280;72015;51.330;12.316;2024-01-07T21:41:03;101186.55;;;-1.23;46.37
82311;BME280;72015;51.330;12.316;2024-01-07T21:45:27;101187.30;;;-1.18;46.68
82311;BME280;72015;51.330;12.316;2024-01-07T21:49:51;101188.58;;;-1.19;46.72
82311;BME280;72015;51.330;12.316;2024-01-07T21:54:15;101190.11;;;-1.17;45.68
82311;BME280;72015;51.330;12.316;2024-01-07T21:58:39;101191.53;;;-1.21;46.13
82311;BME280;72015;51.330;12.316;2024-01-07T22:03:03;101192.80;;;-1.24;46.20
82311;BME280;72015;51.330;12.316;2024-01-07T22:07:27;101194.00;;;-1.31;46.00
82311;BME280;72015;51.330;12.316;2024-01-07T22:11:51;101195.09;;;-1.42;46.39
82311;BME280;72015;51.330;12.316;2024-01-07T22:16:15;101196.91;;;-1.56;46.44
82311;BME280;72015;51.330;12.316;2024-01-07T22:20:39;101198.61;;;-1.67;46.23
82311;BME280;72015;51.330;12.316;2024-01-07T22:25:03;101202.39;;;-1.73;45.99
82311;BME280;72015;51.330;12.316;2024-01-07T22:29:27;101204.44;;;-1.75;46.12
82311;BME280;72015;51.330;12.316;2024-01-07T22:33:51;101207.42;;;-1.80;46.17
82311;BME280;72015;51.330;12.316;2024-01-07T22:38:15;101209.48;;;-1.85;46.31
82311;BME280;72015;51.330;12.316;2024-01-07T22:42:39;101211.19;;;-1.81;45.75